Latest Coastal Weather Observations for Rundle Island

IDQ60701

Issued at 6:13 pm EST Wednesday 8 February 2023 (issued every 10 minutes, with the page automatically refreshed every 10 minutes)

About coastal observations | Map of coastal stations | Coastal observations for QLD | Marine services | Other Formats
Station Details ID: 039322 Name: RUNDLE ISLAND Lat: -23.53 Lon: 151.28 Height: 19.8 m
Data from the previous 72 hours. | See also: Recent months at Rundle Island
Date/Time
EST
Wind Sea
Height
m
Swell Vis
km
Cloud Weather Temp
°C
Press
MSL
hPa
Rain since
9am
mm
Dir  Spd
kts
Gust
kts
Height
m
Period
s
Dir
08/06:00pm SE 29 33 - - - - - - - 27.4 1006.5 -
08/05:30pm SE 27 32 - - - - - - - 27.2 1006.3 -
08/05:00pm SE 27 30 - - - - - - - 27.3 1006.3 -
08/04:30pm SE 25 30 - - - - - - - 27.3 1006.3 -
08/04:00pm SE 27 33 - - - - - - - 27.2 1006.0 -
08/03:30pm SE 30 35 - - - - - - - 27.4 1006.0 -
08/03:00pm SE 28 33 - - - - - - - 27.3 1006.2 -
08/02:30pm SE 29 34 - - - - - - - 27.3 1006.4 -
08/02:00pm SE 29 34 - - - - - - - 27.2 1006.5 -
08/01:30pm SE 28 32 - - - - - - - 27.5 1006.9 -
08/01:00pm SE 29 33 - - - - - - - 27.1 1007.1 -
08/12:30pm SE 28 33 - - - - - - - 27.2 1007.4 -
08/12:00pm SE 26 30 - - - - - - - 27.4 1007.5 -
08/11:30am SE 24 29 - - - - - - - 27.4 1008.0 -
08/11:00am SE 25 31 - - - - - - - 26.8 1008.1 -
08/10:30am SE 25 29 - - - - - - - 26.9 1008.3 -
08/10:00am SE 22 26 - - - - - - - 27.1 1008.5 -
08/09:30am SE 23 27 - - - - - - - 27.0 1008.5 -
08/09:00am SE 23 27 - - - - - - - 26.4 1008.4 -
08/08:30am SE 23 27 - - - - - - - 26.3 1008.5 -
08/08:00am SE 21 25 - - - - - - - 26.3 1008.6 -
08/07:30am SE 21 23 - - - - - - - 26.3 1008.3 -
08/07:00am SE 21 27 - - - - - - - 26.3 1008.2 -
08/06:30am ESE 23 27 - - - - - - - 26.8 1008.2 -
08/06:00am ESE 23 25 - - - - - - - 26.8 1007.8 -
08/05:30am SE 21 26 - - - - - - - 26.6 1007.6 -
08/05:00am SSE 21 24 - - - - - - - 25.9 1007.3 -
08/04:30am SE 20 23 - - - - - - - 25.8 1007.5 -
08/04:00am SSE 21 25 - - - - - - - 25.8 1007.4 -
08/03:30am SSE 21 24 - - - - - - - 25.9 1007.4 -
08/03:00am SE 21 23 - - - - - - - 25.9 1007.6 -
08/02:30am SE 21 24 - - - - - - - 25.8 1007.7 -
08/02:00am SE 21 24 - - - - - - - 25.9 1007.9 -
08/01:30am SSE 21 24 - - - - - - - 26.0 1008.0 -
08/01:00am SE 22 25 - - - - - - - 26.4 1008.5 -
08/12:30am SSE 22 25 - - - - - - - 26.4 1009.0 -
08/12:25am SSE 22 25 - - - - - - - 26.3 1008.9 -
08/12:00am SE 25 29 - - - - - - - 26.9 1009.3 -
 
Date/Time
EST
Wind Sea
Height
m
Swell Vis
km
Cloud Weather Temp
°C
Press
MSL
hPa
Rain since
9am
mm
Dir  Spd
kts
Gust
kts
Height
m
Period
s
Dir
07/11:30pm SE 25 29 - - - - - - - 26.9 1009.8 -
07/11:00pm SE 25 29 - - - - - - - 26.8 1009.9 -
07/10:30pm SE 26 31 - - - - - - - 27.1 1010.2 -
07/10:00pm SE 27 31 - - - - - - - 27.3 1010.2 -
07/09:30pm SE 28 31 - - - - - - - 27.1 1010.0 -
07/09:00pm SE 29 34 - - - - - - - 27.3 1010.1 -
07/08:30pm SE 28 32 - - - - - - - 27.1 1009.7 -
07/08:00pm ESE 28 32 - - - - - - - 27.2 1009.6 -
07/07:30pm SE 27 32 - - - - - - - 27.4 1009.5 -
07/07:00pm ESE 27 32 - - - - - - - 27.2 1009.3 -
07/06:30pm ESE 27 31 - - - - - - - 27.5 1009.0 -
07/06:00pm ESE 26 29 - - - - - - - 27.4 1008.6 -
07/05:30pm SE 23 26 - - - - - - - 27.3 1008.5 -
07/05:00pm ESE 24 29 - - - - - - - 27.1 1008.1 -
07/04:30pm SE 25 29 - - - - - - - 27.4 1008.0 -
07/04:00pm SE 24 28 - - - - - - - 27.6 1008.2 -
07/03:30pm SE 24 28 - - - - - - - 27.3 1008.4 -
07/03:00pm SE 23 26 - - - - - - - 27.3 1008.6 -
07/02:30pm SE 24 28 - - - - - - - 27.3 1008.7 -
07/02:00pm SE 25 28 - - - - - - - 27.3 1008.9 -
07/01:30pm SE 24 28 - - - - - - - 27.5 1009.0 -
07/01:00pm SE 26 30 - - - - - - - 27.3 1009.1 -
07/12:30pm SE 25 29 - - - - - - - 27.2 1009.4 -
07/12:00pm SE 25 29 - - - - - - - 27.2 1009.8 -
07/11:30am SE 26 29 - - - - - - - 27.2 1010.0 -
07/11:00am SE 26 29 - - - - - - - 27.0 1010.2 -
07/10:30am SE 25 29 - - - - - - - 27.1 1010.5 -
07/10:00am SE 25 28 - - - - - - - 26.9 1010.6 -
07/09:30am SE 24 29 - - - - - - - 26.4 1010.4 -
07/09:00am SE 23 27 - - - - - - - 26.6 1010.2 -
07/08:30am SE 23 26 - - - - - - - 26.1 1010.1 -
07/08:00am SSE 25 29 - - - - - - - 26.3 1010.2 -
07/07:30am SSE 23 27 - - - - - - - 26.3 1010.1 -
07/07:00am SE 22 27 - - - - - - - 26.1 1009.9 -
07/06:30am SE 22 26 - - - - - - - 26.0 1009.7 -
07/06:00am SE 23 27 - - - - - - - 25.9 1009.3 -
07/05:30am SE 23 26 - - - - - - - 25.8 1009.1 -
07/05:00am SE 22 24 - - - - - - - 25.9 1009.0 -
07/04:30am SE 22 25 - - - - - - - 25.9 1008.9 -
07/04:00am SSE 22 25 - - - - - - - 26.0 1009.0 -
07/03:30am SE 22 25 - - - - - - - 26.1 1009.0 -
07/03:00am SE 22 25 - - - - - - - 26.1 1009.2 -
07/02:30am SE 22 25 - - - - - - - 26.4 1009.4 -
07/02:00am SE 22 24 - - - - - - - 26.5 1009.4 -
07/01:30am SE 22 26 - - - - - - - 26.7 1009.4 -
07/01:00am SSE 22 25 - - - - - - - 26.9 1010.0 -
07/12:30am SSE 22 27 - - - - - - - 26.9 1010.2 -
07/12:00am SE 26 31 - - - - - - - 27.4 1010.5 -
 
Date/Time
EST
Wind Sea
Height
m
Swell Vis
km
Cloud Weather Temp
°C
Press
MSL
hPa
Rain since
9am
mm
Dir  Spd
kts
Gust
kts
Height
m
Period
s
Dir
06/11:30pm SE 28 32 - - - - - - - 27.4 1010.6 -
06/11:00pm SE 27 32 - - - - - - - 27.4 1010.8 -
06/10:30pm SE 28 32 - - - - - - - 27.4 1010.8 -
06/10:00pm SE 27 31 - - - - - - - 27.4 1011.1 -
06/09:30pm SE 28 33 - - - - - - - 27.2 1011.1 -
06/09:00pm SE 27 33 - - - - - - - 27.1 1011.0 -
06/08:30pm SE 28 33 - - - - - - - 27.4 1010.5 -
06/08:00pm SE 28 33 - - - - - - - 27.3 1010.9 -
06/07:30pm SE 29 34 - - - - - - - 27.2 1010.7 -
06/07:00pm SE 29 33 - - - - - - - 27.1 1010.1 -
06/06:30pm SE 29 33 - - - - - - - 27.2 1010.0 -
06/06:00pm SE 30 34 - - - - - - - 27.4 1009.7 -
06/05:30pm SE 28 32 - - - - - - - 27.2 1009.6 -
06/05:00pm SE 28 33 - - - - - - - 27.3 1009.2 -
06/04:30pm SE 28 31 - - - - - - - 27.6 1009.5 -
06/04:00pm SE 24 27 - - - - - - - 27.8 1009.6 -
06/03:30pm SE 23 26 - - - - - - - 27.8 1009.7 -
06/03:00pm SE 19 22 - - - - - - - 27.9 1010.0 -
06/02:30pm ESE 19 21 - - - - - - - 27.8 1010.3 -
06/02:00pm ESE 18 22 - - - - - - - 27.8 1010.4 -
06/01:30pm SE 20 22 - - - - - - - 28.0 1010.6 -
06/01:00pm ESE 21 24 - - - - - - - 27.8 1010.7 -
06/12:30pm SE 20 22 - - - - - - - 27.6 1010.9 -
06/12:00pm SE 21 25 - - - - - - - 27.7 1011.2 -
06/11:30am SE 22 25 - - - - - - - 27.7 1011.4 -
06/11:00am SE 21 25 - - - - - - - 27.7 1011.6 -
06/10:30am SE 18 21 - - - - - - - 27.5 1012.0 -
06/10:00am SE 18 21 - - - - - - - 27.4 1012.2 -
06/09:30am SE 17 19 - - - - - - - 27.1 1012.3 -
06/09:00am SSE 19 22 - - - - - - - 26.8 1012.0 -
06/08:30am SSE 19 22 - - - - - - - 26.8 1011.9 -
06/08:00am SE 19 21 - - - - - - - 26.9 1011.6 -
06/07:30am SSE 20 23 - - - - - - - 26.5 1011.7 -
06/07:00am SE 20 22 - - - - - - - 26.6 1011.7 -
06/06:30am SE 19 23 - - - - - - - 26.6 1011.3 -
06/06:00am SSE 19 21 - - - - - - - 26.8 1011.0 -
06/05:30am SE 18 21 - - - - - - - 27.0 1010.8 -
06/05:00am SE 19 21 - - - - - - - 26.9 1010.7 -
06/04:30am SE 20 22 - - - - - - - 27.0 1010.3 -
06/04:00am SE 18 20 - - - - - - - 27.3 1009.8 -
06/03:30am SE 17 21 - - - - - - - 27.1 1009.6 -
06/03:00am SSE 18 21 - - - - - - - 27.2 1009.4 -
06/02:30am SSE 17 21 - - - - - - - 26.9 1009.6 -
06/02:00am SSE 16 18 - - - - - - - 27.1 1010.1 -
06/01:30am SE 18 19 - - - - - - - 27.1 1010.5 -
06/01:00am SE 19 22 - - - - - - - 27.7 1010.5 -
06/12:30am SE 18 21 - - - - - - - 27.5 1010.8 -
06/12:00am SE 19 22 - - - - - - - 27.7 1011.0 -
 
Date/Time
EST
Wind Sea
Height
m
Swell Vis
km
Cloud Weather Temp
°C
Press
MSL
hPa
Rain since
9am
mm
Dir  Spd
kts
Gust
kts
Height
m
Period
s
Dir
05/11:30pm SE 20 23 - - - - - - - 27.6 1011.1 -
05/11:00pm SE 22 25 - - - - - - - 27.5 1011.1 -
05/10:30pm SE 22 26 - - - - - - - 27.9 1011.3 -
05/10:00pm SE 20 23 - - - - - - - 28.0 1011.2 -
05/09:30pm ESE 22 25 - - - - - - - 27.8 1011.2 -
05/09:00pm ESE 20 24 - - - - - - - 27.8 1011.0 -
05/08:30pm ESE 24 28 - - - - - - - 27.9 1010.5 -
05/08:00pm ESE 22 25 - - - - - - - 28.0 1010.0 -
05/07:30pm ESE 22 25 - - - - - - - 28.0 1009.7 -
05/07:00pm ESE 21 25 - - - - - - - 28.0 1009.4 -
05/06:30pm ESE 22 25 - - - - - - - 28.0 1009.0 -

Other formats

Comma delimited format used in spreadsheet applications
http://www.bom.gov.au/fwo/IDQ60701/IDQ60701.94378.axf

JavaScript Object Notation format (JSON) in row-major order
http://www.bom.gov.au/fwo/IDQ60701/IDQ60701.94378.json

Data quality

Most of these data are generated automatically and are frequently updated. Quality checks on data are not normally performed. It is possible for incorrect values to appear. Refer to information at About Latest Weather Observations and please check the disclaimer before using these data.